Welcome to the New NWS' Forecast!
Most changes are behind the scenes, but click here for differences you might notice.

Terminal Aerodrome Forecast (TAF)

Issued by National Weather Service (NWS)

                            
000
FTUS42 KKEY 131458 AAB
TAFEYW
TAF AMD
KEYW 131458Z 1315/1412 15012KT P6SM VCSH SCT025 BKN080
      TEMPO 1315/1316 6SM -SHRA BKN025
     FM131800 13008KT P6SM SCT025=